Terminal Aerodrome Forecast
Issued by NWS Pueblo, CO

Home | Current Version | Previous Version | Text Only | Print | Product List | Glossary On
Versions: 1 2 3 4 5 6 7 8 9 10 11 12 13 14 15 16 17
000
FTUS45 KPUB 281720
TAFPUB
TAF
KPUB 281720Z 2818/2918 09008KT P6SM SCT100 SCT200
     FM282100 12010KT P6SM SCT100 BKN200
     FM282300 08010KT P6SM VCTS SCT080CB BKN120
      TEMPO 2823/2902 VRB15G30KT BKN080CB
     FM290300 01010KT P6SM VCTS SCT080CB BKN120
     FM290600 32008KT P6SM SCT120 SCT200=

USA.gov is the U.S. government's official web portal to all federal, state and local government web resources and services.